sensor_id;sensor_type;location;lat;lon;timestamp;P1;durP1;ratioP1;P2;durP2;ratioP2
77085;SDS011;66014;53.134;18.006;2023-10-19T00:00:59;29.40;;;13.50;;
77085;SDS011;66014;53.134;18.006;2023-10-19T00:03:34;36.20;;;14.20;;
77085;SDS011;66014;53.134;18.006;2023-10-19T00:06:04;32.40;;;13.90;;
77085;SDS011;66014;53.134;18.006;2023-10-19T00:08:31;33.00;;;14.40;;
77085;SDS011;66014;53.134;18.006;2023-10-19T00:11:07;32.20;;;13.60;;
77085;SDS011;66014;53.134;18.006;2023-10-19T00:13:35;34.70;;;14.90;;
77085;SDS011;66014;53.134;18.006;2023-10-19T00:16:02;31.30;;;13.80;;
77085;SDS011;66014;53.134;18.006;2023-10-19T00:18:38;37.80;;;14.60;;
77085;SDS011;66014;53.134;18.006;2023-10-19T00:21:09;33.80;;;14.60;;
77085;SDS011;66014;53.134;18.006;2023-10-19T00:23:38;33.40;;;14.50;;
77085;SDS011;66014;53.134;18.006;2023-10-19T00:26:06;34.80;;;14.10;;
77085;SDS011;66014;53.134;18.006;2023-10-19T00:28:39;28.30;;;13.30;;
77085;SDS011;66014;53.134;18.006;2023-10-19T00:31:06;27.50;;;13.30;;
77085;SDS011;66014;53.134;18.006;2023-10-19T00:33:37;28.30;;;13.90;;
77085;SDS011;66014;53.134;18.006;2023-10-19T00:36:08;32.10;;;13.40;;
77085;SDS011;66014;53.134;18.006;2023-10-19T00:38:36;30.10;;;13.20;;
77085;SDS011;66014;53.134;18.006;2023-10-19T00:41:04;28.10;;;13.40;;
77085;SDS011;66014;53.134;18.006;2023-10-19T00:43:35;28.40;;;13.40;;
77085;SDS011;66014;53.134;18.006;2023-10-19T00:46:04;29.30;;;13.20;;
77085;SDS011;66014;53.134;18.006;2023-10-19T00:48:57;29.60;;;12.70;;
77085;SDS011;66014;53.134;18.006;2023-10-19T00:51:29;33.00;;;14.30;;
77085;SDS011;66014;53.134;18.006;2023-10-19T00:54:03;30.30;;;14.30;;
77085;SDS011;66014;53.134;18.006;2023-10-19T00:56:35;42.00;;;15.50;;
77085;SDS011;66014;53.134;18.006;2023-10-19T00:59:01;39.30;;;17.30;;
77085;SDS011;66014;53.134;18.006;2023-10-19T01:01:41;31.00;;;13.00;;
77085;SDS011;66014;53.134;18.006;2023-10-19T01:04:11;39.50;;;17.00;;
77085;SDS011;66014;53.134;18.006;2023-10-19T01:06:41;39.30;;;17.60;;
77085;SDS011;66014;53.134;18.006;2023-10-19T01:09:24;34.70;;;17.10;;
77085;SDS011;66014;53.134;18.006;2023-10-19T01:11:54;34.30;;;15.10;;
77085;SDS011;66014;53.134;18.006;2023-10-19T01:14:21;37.50;;;16.00;;
77085;SDS011;66014;53.134;18.006;2023-10-19T01:16:49;32.40;;;15.20;;
77085;SDS011;66014;53.134;18.006;2023-10-19T01:19:17;52.30;;;18.10;;
77085;SDS011;66014;53.134;18.006;2023-10-19T01:21:48;53.60;;;18.50;;
77085;SDS011;66014;53.134;18.006;2023-10-19T01:24:20;43.60;;;17.20;;
77085;SDS011;66014;53.134;18.006;2023-10-19T01:27:05;33.30;;;13.80;;
77085;SDS011;66014;53.134;18.006;2023-10-19T01:29:35;29.80;;;13.70;;
77085;SDS011;66014;53.134;18.006;2023-10-19T01:32:07;30.10;;;14.10;;
77085;SDS011;66014;53.134;18.006;2023-10-19T01:37:04;28.10;;;12.30;;
77085;SDS011;66014;53.134;18.006;2023-10-19T01:39:31;26.00;;;11.90;;
77085;SDS011;66014;53.134;18.006;2023-10-19T01:42:01;32.60;;;14.10;;
77085;SDS011;66014;53.134;18.006;2023-10-19T01:44:30;30.90;;;13.60;;
77085;SDS011;66014;53.134;18.006;2023-10-19T01:46:57;26.80;;;13.20;;
77085;SDS011;66014;53.134;18.006;2023-10-19T01:49:28;27.10;;;13.70;;
77085;SDS011;66014;53.134;18.006;2023-10-19T01:51:56;25.70;;;14.10;;
77085;SDS011;66014;53.134;18.006;2023-10-19T01:54:23;29.80;;;13.80;;
77085;SDS011;66014;53.134;18.006;2023-10-19T01:56:52;26.00;;;14.40;;
77085;SDS011;66014;53.134;18.006;2023-10-19T01:59:24;29.10;;;13.50;;
77085;SDS011;66014;53.134;18.006;2023-10-19T02:01:54;29.90;;;13.70;;
77085;SDS011;66014;53.134;18.006;2023-10-19T02:04:21;32.60;;;15.10;;
77085;SDS011;66014;53.134;18.006;2023-10-19T02:06:50;29.20;;;14.30;;
77085;SDS011;66014;53.134;18.006;2023-10-19T02:09:19;32.60;;;14.60;;
77085;SDS011;66014;53.134;18.006;2023-10-19T02:11:49;32.10;;;14.60;;
77085;SDS011;66014;53.134;18.006;2023-10-19T02:14:19;32.30;;;15.40;;
77085;SDS011;66014;53.134;18.006;2023-10-19T02:16:47;30.50;;;14.40;;
77085;SDS011;66014;53.134;18.006;2023-10-19T02:19:17;31.00;;;13.90;;
77085;SDS011;66014;53.134;18.006;2023-10-19T02:21:44;27.80;;;15.00;;
77085;SDS011;66014;53.134;18.006;2023-10-19T02:24:14;29.20;;;13.60;;
77085;SDS011;66014;53.134;18.006;2023-10-19T02:26:42;30.60;;;15.00;;
77085;SDS011;66014;53.134;18.006;2023-10-19T02:29:10;32.20;;;14.50;;
77085;SDS011;66014;53.134;18.006;2023-10-19T02:31:42;28.70;;;14.70;;
77085;SDS011;66014;53.134;18.006;2023-10-19T02:34:12;30.80;;;14.50;;
77085;SDS011;66014;53.134;18.006;2023-10-19T02:36:42;28.70;;;14.40;;
77085;SDS011;66014;53.134;18.006;2023-10-19T02:39:12;31.20;;;13.70;;
77085;SDS011;66014;53.134;18.006;2023-10-19T02:41:50;29.90;;;14.60;;
77085;SDS011;66014;53.134;18.006;2023-10-19T02:44:20;26.80;;;13.60;;
77085;SDS011;66014;53.134;18.006;2023-10-19T02:46:52;29.40;;;14.90;;
77085;SDS011;66014;53.134;18.006;2023-10-19T02:49:25;31.00;;;12.90;;
77085;SDS011;66014;53.134;18.006;2023-10-19T02:51:53;26.00;;;13.70;;
77085;SDS011;66014;53.134;18.006;2023-10-19T02:54:20;27.60;;;13.60;;
77085;SDS011;66014;53.134;18.006;2023-10-19T02:56:52;29.60;;;14.90;;
77085;SDS011;66014;53.134;18.006;2023-10-19T02:59:20;26.50;;;14.10;;
77085;SDS011;66014;53.134;18.006;2023-10-19T03:01:55;26.20;;;13.80;;
77085;SDS011;66014;53.134;18.006;2023-10-19T03:04:27;26.90;;;13.40;;
77085;SDS011;66014;53.134;18.006;2023-10-19T03:06:56;26.20;;;13.90;;
77085;SDS011;66014;53.134;18.006;2023-10-19T03:09:23;27.00;;;13.60;;
77085;SDS011;66014;53.134;18.006;2023-10-19T03:11:52;33.70;;;15.90;;
77085;SDS011;66014;53.134;18.006;2023-10-19T03:14:21;30.40;;;15.30;;
77085;SDS011;66014;53.134;18.006;2023-10-19T03:16:51;28.80;;;13.60;;
77085;SDS011;66014;53.134;18.006;2023-10-19T03:19:21;28.30;;;14.80;;
77085;SDS011;66014;53.134;18.006;2023-10-19T03:21:48;25.50;;;13.80;;
77085;SDS011;66014;53.134;18.006;2023-10-19T03:24:18;30.80;;;14.50;;
77085;SDS011;66014;53.134;18.006;2023-10-19T03:27:05;26.90;;;14.60;;
77085;SDS011;66014;53.134;18.006;2023-10-19T03:29:45;26.30;;;14.00;;
77085;SDS011;66014;53.134;18.006;2023-10-19T03:32:14;31.00;;;14.30;;
77085;SDS011;66014;53.134;18.006;2023-10-19T03:34:45;26.20;;;13.90;;
77085;SDS011;66014;53.134;18.006;2023-10-19T03:37:16;28.20;;;14.80;;
77085;SDS011;66014;53.134;18.006;2023-10-19T03:39:45;28.90;;;15.30;;
77085;SDS011;66014;53.134;18.006;2023-10-19T03:42:12;29.10;;;14.40;;
77085;SDS011;66014;53.134;18.006;2023-10-19T03:44:42;31.40;;;15.60;;
77085;SDS011;66014;53.134;18.006;2023-10-19T03:47:15;31.00;;;15.00;;
77085;SDS011;66014;53.134;18.006;2023-10-19T03:49:49;27.00;;;13.60;;
77085;SDS011;66014;53.134;18.006;2023-10-19T03:52:16;29.30;;;15.30;;
77085;SDS011;66014;53.134;18.006;2023-10-19T03:54:43;32.40;;;16.60;;
77085;SDS011;66014;53.134;18.006;2023-10-19T03:57:10;31.10;;;15.70;;
77085;SDS011;66014;53.134;18.006;2023-10-19T04:02:05;67.30;;;28.90;;
77085;SDS011;66014;53.134;18.006;2023-10-19T04:04:43;50.70;;;23.60;;
77085;SDS011;66014;53.134;18.006;2023-10-19T04:07:10;48.30;;;21.30;;
77085;SDS011;66014;53.134;18.006;2023-10-19T04:09:42;44.00;;;20.40;;
77085;SDS011;66014;53.134;18.006;2023-10-19T04:12:23;41.10;;;18.90;;
77085;SDS011;66014;53.134;18.006;2023-10-19T04:14:50;33.20;;;17.30;;
77085;SDS011;66014;53.134;18.006;2023-10-19T04:17:18;38.30;;;18.30;;
77085;SDS011;66014;53.134;18.006;2023-10-19T04:19:47;45.60;;;20.30;;
77085;SDS011;66014;53.134;18.006;2023-10-19T04:22:21;38.40;;;18.80;;
77085;SDS011;66014;53.134;18.006;2023-10-19T04:24:50;44.20;;;20.30;;
77085;SDS011;66014;53.134;18.006;2023-10-19T04:27:17;39.40;;;18.50;;
77085;SDS011;66014;53.134;18.006;2023-10-19T04:29:47;35.30;;;19.30;;
77085;SDS011;66014;53.134;18.006;2023-10-19T04:32:16;34.90;;;17.80;;
77085;SDS011;66014;53.134;18.006;2023-10-19T04:34:52;39.50;;;18.70;;
77085;SDS011;66014;53.134;18.006;2023-10-19T04:37:19;39.60;;;19.00;;
77085;SDS011;66014;53.134;18.006;2023-10-19T04:39:45;35.50;;;19.00;;
77085;SDS011;66014;53.134;18.006;2023-10-19T04:42:12;37.10;;;20.10;;
77085;SDS011;66014;53.134;18.006;2023-10-19T04:44:38;36.00;;;17.60;;
77085;SDS011;66014;53.134;18.006;2023-10-19T04:47:05;34.40;;;18.30;;
77085;SDS011;66014;53.134;18.006;2023-10-19T04:49:31;32.70;;;17.20;;
77085;SDS011;66014;53.134;18.006;2023-10-19T04:51:58;39.10;;;18.20;;
77085;SDS011;66014;53.134;18.006;2023-10-19T04:54:24;37.20;;;20.30;;
77085;SDS011;66014;53.134;18.006;2023-10-19T04:56:51;36.40;;;18.00;;
77085;SDS011;66014;53.134;18.006;2023-10-19T04:59:21;36.40;;;17.40;;
77085;SDS011;66014;53.134;18.006;2023-10-19T05:01:48;36.50;;;16.70;;
77085;SDS011;66014;53.134;18.006;2023-10-19T05:04:16;43.90;;;20.70;;
77085;SDS011;66014;53.134;18.006;2023-10-19T05:06:43;49.10;;;24.60;;
77085;SDS011;66014;53.134;18.006;2023-10-19T05:09:10;43.70;;;22.70;;
77085;SDS011;66014;53.134;18.006;2023-10-19T05:11:38;45.10;;;23.00;;
77085;SDS011;66014;53.134;18.006;2023-10-19T05:14:05;40.50;;;21.40;;
77085;SDS011;66014;53.134;18.006;2023-10-19T05:16:32;39.30;;;18.20;;
77085;SDS011;66014;53.134;18.006;2023-10-19T05:18:59;38.60;;;19.70;;
77085;SDS011;66014;53.134;18.006;2023-10-19T05:21:26;39.50;;;18.30;;
77085;SDS011;66014;53.134;18.006;2023-10-19T05:23:52;37.00;;;18.30;;
77085;SDS011;66014;53.134;18.006;2023-10-19T05:26:19;36.70;;;17.90;;
77085;SDS011;66014;53.134;18.006;2023-10-19T05:28:45;36.00;;;18.30;;
77085;SDS011;66014;53.134;18.006;2023-10-19T05:31:14;38.70;;;18.70;;
77085;SDS011;66014;53.134;18.006;2023-10-19T05:33:41;37.20;;;16.90;;
77085;SDS011;66014;53.134;18.006;2023-10-19T05:36:07;40.60;;;20.00;;
77085;SDS011;66014;53.134;18.006;2023-10-19T05:38:34;38.00;;;17.80;;
77085;SDS011;66014;53.134;18.006;2023-10-19T05:41:01;38.40;;;20.10;;
77085;SDS011;66014;53.134;18.006;2023-10-19T05:43:27;41.40;;;19.10;;
77085;SDS011;66014;53.134;18.006;2023-10-19T05:45:54;41.90;;;17.60;;
77085;SDS011;66014;53.134;18.006;2023-10-19T05:48:22;38.00;;;17.00;;
77085;SDS011;66014;53.134;18.006;2023-10-19T05:50:53;49.30;;;18.40;;
77085;SDS011;66014;53.134;18.006;2023-10-19T05:53:20;35.30;;;18.10;;
77085;SDS011;66014;53.134;18.006;2023-10-19T05:55:48;40.90;;;18.10;;
77085;SDS011;66014;53.134;18.006;2023-10-19T05:58:15;38.80;;;17.30;;
77085;SDS011;66014;53.134;18.006;2023-10-19T06:00:42;37.60;;;17.30;;
77085;SDS011;66014;53.134;18.006;2023-10-19T06:03:09;37.00;;;18.50;;
77085;SDS011;66014;53.134;18.006;2023-10-19T06:05:36;33.90;;;16.80;;
77085;SDS011;66014;53.134;18.006;2023-10-19T06:08:02;37.60;;;17.60;;
77085;SDS011;66014;53.134;18.006;2023-10-19T06:10:30;36.60;;;17.90;;
77085;SDS011;66014;53.134;18.006;2023-10-19T06:12:58;36.90;;;16.90;;
77085;SDS011;66014;53.134;18.006;2023-10-19T06:15:24;37.00;;;17.00;;
77085;SDS011;66014;53.134;18.006;2023-10-19T06:17:51;37.60;;;17.90;;
77085;SDS011;66014;53.134;18.006;2023-10-19T06:20:18;32.80;;;16.90;;
77085;SDS011;66014;53.134;18.006;2023-10-19T06:22:58;29.80;;;15.60;;
77085;SDS011;66014;53.134;18.006;2023-10-19T06:25:30;38.80;;;18.90;;
77085;SDS011;66014;53.134;18.006;2023-10-19T06:27:57;34.20;;;17.70;;
77085;SDS011;66014;53.134;18.006;2023-10-19T06:30:25;38.00;;;19.20;;
77085;SDS011;66014;53.134;18.006;2023-10-19T06:32:53;35.50;;;18.50;;
77085;SDS011;66014;53.134;18.006;2023-10-19T06:35:21;32.90;;;18.20;;
77085;SDS011;66014;53.134;18.006;2023-10-19T06:37:49;33.80;;;17.30;;
77085;SDS011;66014;53.134;18.006;2023-10-19T06:40:16;32.60;;;17.00;;
77085;SDS011;66014;53.134;18.006;2023-10-19T06:42:43;31.10;;;16.50;;
77085;SDS011;66014;53.134;18.006;2023-10-19T06:45:13;34.40;;;15.70;;
77085;SDS011;66014;53.134;18.006;2023-10-19T06:47:41;28.60;;;15.70;;
77085;SDS011;66014;53.134;18.006;2023-10-19T06:50:20;28.20;;;14.40;;
77085;SDS011;66014;53.134;18.006;2023-10-19T06:52:51;28.90;;;15.20;;
77085;SDS011;66014;53.134;18.006;2023-10-19T06:55:18;37.20;;;15.80;;
77085;SDS011;66014;53.134;18.006;2023-10-19T06:57:52;26.50;;;14.60;;
77085;SDS011;66014;53.134;18.006;2023-10-19T07:00:20;34.10;;;15.70;;
77085;SDS011;66014;53.134;18.006;2023-10-19T07:02:54;33.90;;;15.30;;
77085;SDS011;66014;53.134;18.006;2023-10-19T07:05:22;29.30;;;15.70;;
77085;SDS011;66014;53.134;18.006;2023-10-19T07:07:56;27.60;;;14.20;;
77085;SDS011;66014;53.134;18.006;2023-10-19T07:10:26;27.80;;;14.70;;
77085;SDS011;66014;53.134;18.006;2023-10-19T07:12:54;31.00;;;15.00;;
77085;SDS011;66014;53.134;18.006;2023-10-19T07:15:22;28.60;;;14.40;;
77085;SDS011;66014;53.134;18.006;2023-10-19T07:17:49;29.60;;;15.70;;
77085;SDS011;66014;53.134;18.006;2023-10-19T07:20:20;28.70;;;14.20;;
77085;SDS011;66014;53.134;18.006;2023-10-19T07:22:59;28.70;;;14.10;;
77085;SDS011;66014;53.134;18.006;2023-10-19T07:25:36;28.20;;;12.80;;
77085;SDS011;66014;53.134;18.006;2023-10-19T07:28:11;26.50;;;13.20;;
77085;SDS011;66014;53.134;18.006;2023-10-19T07:30:58;22.90;;;12.60;;
77085;SDS011;66014;53.134;18.006;2023-10-19T07:33:26;32.10;;;14.00;;
77085;SDS011;66014;53.134;18.006;2023-10-19T07:35:59;33.00;;;16.20;;
77085;SDS011;66014;53.134;18.006;2023-10-19T07:38:59;32.10;;;15.90;;
77085;SDS011;66014;53.134;18.006;2023-10-19T07:41:27;26.70;;;14.10;;
77085;SDS011;66014;53.134;18.006;2023-10-19T07:44:02;26.00;;;13.40;;
77085;SDS011;66014;53.134;18.006;2023-10-19T07:46:42;35.20;;;14.80;;
77085;SDS011;66014;53.134;18.006;2023-10-19T07:49:29;32.40;;;13.90;;
77085;SDS011;66014;53.134;18.006;2023-10-19T07:51:57;34.60;;;15.40;;
77085;SDS011;66014;53.134;18.006;2023-10-19T07:54:43;29.40;;;13.70;;
77085;SDS011;66014;53.134;18.006;2023-10-19T07:57:20;34.70;;;14.20;;
77085;SDS011;66014;53.134;18.006;2023-10-19T07:59:47;28.00;;;14.20;;
77085;SDS011;66014;53.134;18.006;2023-10-19T08:02:14;28.40;;;12.80;;
77085;SDS011;66014;53.134;18.006;2023-10-19T08:04:41;22.70;;;12.80;;
77085;SDS011;66014;53.134;18.006;2023-10-19T08:07:11;25.80;;;12.60;;
77085;SDS011;66014;53.134;18.006;2023-10-19T08:09:39;23.50;;;12.70;;
77085;SDS011;66014;53.134;18.006;2023-10-19T08:12:09;24.90;;;13.30;;
77085;SDS011;66014;53.134;18.006;2023-10-19T08:14:41;24.10;;;12.90;;
77085;SDS011;66014;53.134;18.006;2023-10-19T08:17:10;25.60;;;13.30;;
77085;SDS011;66014;53.134;18.006;2023-10-19T08:19:44;27.00;;;13.80;;
77085;SDS011;66014;53.134;18.006;2023-10-19T08:22:15;24.50;;;12.80;;
77085;SDS011;66014;53.134;18.006;2023-10-19T08:24:56;24.10;;;12.60;;
77085;SDS011;66014;53.134;18.006;2023-10-19T08:27:32;28.60;;;13.50;;
77085;SDS011;66014;53.134;18.006;2023-10-19T08:30:06;25.80;;;12.80;;
77085;SDS011;66014;53.134;18.006;2023-10-19T08:32:51;26.40;;;12.20;;
77085;SDS011;66014;53.134;18.006;2023-10-19T08:35:28;26.90;;;14.00;;
77085;SDS011;66014;53.134;18.006;2023-10-19T08:37:55;28.30;;;13.60;;
77085;SDS011;66014;53.134;18.006;2023-10-19T08:40:31;29.10;;;14.30;;
77085;SDS011;66014;53.134;18.006;2023-10-19T08:43:02;30.30;;;13.40;;
77085;SDS011;66014;53.134;18.006;2023-10-19T08:45:31;25.70;;;14.10;;
77085;SDS011;66014;53.134;18.006;2023-10-19T08:48:01;26.20;;;13.80;;
77085;SDS011;66014;53.134;18.006;2023-10-19T08:50:29;25.50;;;15.00;;
77085;SDS011;66014;53.134;18.006;2023-10-19T08:52:57;30.30;;;14.60;;
77085;SDS011;66014;53.134;18.006;2023-10-19T08:55:25;26.00;;;14.20;;
77085;SDS011;66014;53.134;18.006;2023-10-19T08:57:52;23.80;;;13.10;;
77085;SDS011;66014;53.134;18.006;2023-10-19T09:00:19;21.30;;;11.00;;
77085;SDS011;66014;53.134;18.006;2023-10-19T09:02:51;22.00;;;11.40;;
77085;SDS011;66014;53.134;18.006;2023-10-19T09:05:20;22.10;;;11.60;;
77085;SDS011;66014;53.134;18.006;2023-10-19T09:07:52;21.00;;;11.50;;
77085;SDS011;66014;53.134;18.006;2023-10-19T09:10:22;24.20;;;13.70;;
77085;SDS011;66014;53.134;18.006;2023-10-19T09:12:58;22.60;;;11.50;;
77085;SDS011;66014;53.134;18.006;2023-10-19T09:15:29;24.20;;;13.10;;
77085;SDS011;66014;53.134;18.006;2023-10-19T09:18:20;22.10;;;11.30;;
77085;SDS011;66014;53.134;18.006;2023-10-19T09:20:51;23.00;;;12.60;;
77085;SDS011;66014;53.134;18.006;2023-10-19T09:23:34;21.90;;;11.70;;
77085;SDS011;66014;53.134;18.006;2023-10-19T09:26:02;23.10;;;11.50;;
77085;SDS011;66014;53.134;18.006;2023-10-19T09:28:30;21.80;;;11.80;;
77085;SDS011;66014;53.134;18.006;2023-10-19T09:31:00;27.90;;;12.70;;
77085;SDS011;66014;53.134;18.006;2023-10-19T09:33:27;19.10;;;10.80;;
77085;SDS011;66014;53.134;18.006;2023-10-19T09:35:55;25.00;;;12.50;;
77085;SDS011;66014;53.134;18.006;2023-10-19T09:38:27;27.00;;;11.50;;
77085;SDS011;66014;53.134;18.006;2023-10-19T09:40:55;20.20;;;11.10;;
77085;SDS011;66014;53.134;18.006;2023-10-19T09:43:37;24.20;;;11.90;;
77085;SDS011;66014;53.134;18.006;2023-10-19T09:46:08;23.70;;;12.10;;
77085;SDS011;66014;53.134;18.006;2023-10-19T09:48:42;26.70;;;12.40;;
77085;SDS011;66014;53.134;18.006;2023-10-19T09:51:11;29.40;;;14.10;;
77085;SDS011;66014;53.134;18.006;2023-10-19T09:53:39;28.40;;;15.10;;
77085;SDS011;66014;53.134;18.006;2023-10-19T09:56:06;26.70;;;14.70;;
77085;SDS011;66014;53.134;18.006;2023-10-19T09:58:54;24.10;;;13.50;;
77085;SDS011;66014;53.134;18.006;2023-10-19T10:01:24;25.40;;;13.00;;
77085;SDS011;66014;53.134;18.006;2023-10-19T10:03:53;26.30;;;13.40;;
77085;SDS011;66014;53.134;18.006;2023-10-19T10:06:27;24.50;;;11.90;;
77085;SDS011;66014;53.134;18.006;2023-10-19T10:08:54;23.80;;;13.30;;
77085;SDS011;66014;53.134;18.006;2023-10-19T10:11:24;20.70;;;12.30;;
77085;SDS011;66014;53.134;18.006;2023-10-19T10:13:56;23.70;;;12.40;;
77085;SDS011;66014;53.134;18.006;2023-10-19T10:16:25;24.50;;;12.80;;
77085;SDS011;66014;53.134;18.006;2023-10-19T10:18:56;23.50;;;11.20;;
77085;SDS011;66014;53.134;18.006;2023-10-19T10:21:28;23.20;;;12.60;;
77085;SDS011;66014;53.134;18.006;2023-10-19T10:24:00;20.60;;;11.80;;
77085;SDS011;66014;53.134;18.006;2023-10-19T10:26:30;18.80;;;11.30;;
77085;SDS011;66014;53.134;18.006;2023-10-19T10:29:23;25.10;;;12.20;;
77085;SDS011;66014;53.134;18.006;2023-10-19T10:31:52;23.30;;;12.00;;
77085;SDS011;66014;53.134;18.006;2023-10-19T10:37:04;20.60;;;12.00;;
77085;SDS011;66014;53.134;18.006;2023-10-19T10:39:37;23.10;;;11.70;;
77085;SDS011;66014;53.134;18.006;2023-10-19T10:42:07;22.00;;;11.70;;
77085;SDS011;66014;53.134;18.006;2023-10-19T10:44:39;23.50;;;11.40;;
77085;SDS011;66014;53.134;18.006;2023-10-19T10:47:08;19.00;;;11.60;;
77085;SDS011;66014;53.134;18.006;2023-10-19T10:49:52;21.00;;;12.50;;
77085;SDS011;66014;53.134;18.006;2023-10-19T10:54:55;24.70;;;12.60;;
77085;SDS011;66014;53.134;18.006;2023-10-19T10:57:23;23.10;;;12.20;;
77085;SDS011;66014;53.134;18.006;2023-10-19T11:02:30;30.50;;;13.60;;
77085;SDS011;66014;53.134;18.006;2023-10-19T11:04:56;21.10;;;11.20;;
77085;SDS011;66014;53.134;18.006;2023-10-19T11:07:23;28.10;;;16.80;;
77085;SDS011;66014;53.134;18.006;2023-10-19T11:09:50;20.00;;;10.80;;
77085;SDS011;66014;53.134;18.006;2023-10-19T11:12:17;19.90;;;11.90;;
77085;SDS011;66014;53.134;18.006;2023-10-19T11:14:58;19.00;;;12.10;;
77085;SDS011;66014;53.134;18.006;2023-10-19T11:17:26;21.40;;;12.80;;
77085;SDS011;66014;53.134;18.006;2023-10-19T11:19:57;25.00;;;13.20;;
77085;SDS011;66014;53.134;18.006;2023-10-19T11:22:24;19.60;;;11.60;;
77085;SDS011;66014;53.134;18.006;2023-10-19T11:24:52;24.00;;;11.50;;
77085;SDS011;66014;53.134;18.006;2023-10-19T11:27:27;20.30;;;11.60;;
77085;SDS011;66014;53.134;18.006;2023-10-19T11:29:57;19.10;;;10.50;;
77085;SDS011;66014;53.134;18.006;2023-10-19T11:32:24;20.10;;;10.80;;
77085;SDS011;66014;53.134;18.006;2023-10-19T11:34:53;22.20;;;10.10;;
77085;SDS011;66014;53.134;18.006;2023-10-19T11:37:22;19.80;;;11.00;;
77085;SDS011;66014;53.134;18.006;2023-10-19T11:39:49;18.70;;;10.20;;
77085;SDS011;66014;53.134;18.006;2023-10-19T11:42:17;15.60;;;9.80;;
77085;SDS011;66014;53.134;18.006;2023-10-19T11:44:44;16.10;;;9.10;;
77085;SDS011;66014;53.134;18.006;2023-10-19T11:47:12;25.40;;;9.30;;
77085;SDS011;66014;53.134;18.006;2023-10-19T11:49:39;16.20;;;9.00;;
77085;SDS011;66014;53.134;18.006;2023-10-19T11:52:06;18.60;;;10.40;;
77085;SDS011;66014;53.134;18.006;2023-10-19T11:54:33;21.40;;;10.70;;
77085;SDS011;66014;53.134;18.006;2023-10-19T11:57:01;19.80;;;11.30;;
77085;SDS011;66014;53.134;18.006;2023-10-19T11:59:28;25.10;;;11.70;;
77085;SDS011;66014;53.134;18.006;2023-10-19T12:01:55;20.40;;;10.50;;
77085;SDS011;66014;53.134;18.006;2023-10-19T12:04:24;19.40;;;10.90;;
77085;SDS011;66014;53.134;18.006;2023-10-19T12:06:52;21.10;;;11.50;;
77085;SDS011;66014;53.134;18.006;2023-10-19T12:09:19;19.90;;;10.50;;
77085;SDS011;66014;53.134;18.006;2023-10-19T12:11:50;19.50;;;9.80;;
77085;SDS011;66014;53.134;18.006;2023-10-19T12:14:19;24.10;;;10.70;;
77085;SDS011;66014;53.134;18.006;2023-10-19T12:16:47;18.70;;;10.00;;
77085;SDS011;66014;53.134;18.006;2023-10-19T12:19:14;20.50;;;10.50;;
77085;SDS011;66014;53.134;18.006;2023-10-19T12:21:40;22.50;;;10.70;;
77085;SDS011;66014;53.134;18.006;2023-10-19T12:24:07;18.50;;;10.60;;
77085;SDS011;66014;53.134;18.006;2023-10-19T12:26:34;18.30;;;10.20;;
77085;SDS011;66014;53.134;18.006;2023-10-19T12:29:01;16.80;;;10.40;;
77085;SDS011;66014;53.134;18.006;2023-10-19T12:31:30;21.90;;;11.10;;
77085;SDS011;66014;53.134;18.006;2023-10-19T12:33:57;21.60;;;10.10;;
77085;SDS011;66014;53.134;18.006;2023-10-19T12:36:23;23.10;;;11.10;;
77085;SDS011;66014;53.134;18.006;2023-10-19T12:38:59;21.20;;;10.20;;
77085;SDS011;66014;53.134;18.006;2023-10-19T12:41:26;17.10;;;10.20;;
77085;SDS011;66014;53.134;18.006;2023-10-19T12:43:53;19.50;;;10.20;;
77085;SDS011;66014;53.134;18.006;2023-10-19T12:46:34;15.50;;;8.20;;
77085;SDS011;66014;53.134;18.006;2023-10-19T12:49:05;17.10;;;8.70;;
77085;SDS011;66014;53.134;18.006;2023-10-19T12:51:40;16.90;;;9.00;;
77085;SDS011;66014;53.134;18.006;2023-10-19T12:54:08;18.70;;;9.40;;
77085;SDS011;66014;53.134;18.006;2023-10-19T12:56:39;20.30;;;10.40;;
77085;SDS011;66014;53.134;18.006;2023-10-19T12:59:06;18.50;;;9.50;;
77085;SDS011;66014;53.134;18.006;2023-10-19T13:01:33;16.50;;;9.40;;
77085;SDS011;66014;53.134;18.006;2023-10-19T13:04:01;14.70;;;9.50;;
77085;SDS011;66014;53.134;18.006;2023-10-19T13:06:44;16.40;;;8.60;;
77085;SDS011;66014;53.134;18.006;2023-10-19T13:09:14;16.70;;;8.40;;
77085;SDS011;66014;53.134;18.006;2023-10-19T13:11:43;15.10;;;8.40;;
77085;SDS011;66014;53.134;18.006;2023-10-19T13:14:12;15.30;;;8.90;;
77085;SDS011;66014;53.134;18.006;2023-10-19T13:16:38;19.20;;;8.80;;
77085;SDS011;66014;53.134;18.006;2023-10-19T13:19:04;15.20;;;8.60;;
77085;SDS011;66014;53.134;18.006;2023-10-19T13:21:39;18.10;;;8.40;;
77085;SDS011;66014;53.134;18.006;2023-10-19T13:24:08;15.50;;;9.10;;
77085;SDS011;66014;53.134;18.006;2023-10-19T13:26:35;15.00;;;9.20;;
77085;SDS011;66014;53.134;18.006;2023-10-19T13:29:03;17.30;;;10.50;;
77085;SDS011;66014;53.134;18.006;2023-10-19T13:31:30;22.70;;;10.50;;
77085;SDS011;66014;53.134;18.006;2023-10-19T13:33:58;20.20;;;10.10;;
77085;SDS011;66014;53.134;18.006;2023-10-19T13:36:26;15.50;;;8.40;;
77085;SDS011;66014;53.134;18.006;2023-10-19T13:38:52;14.90;;;9.30;;
77085;SDS011;66014;53.134;18.006;2023-10-19T13:41:19;18.00;;;8.70;;
77085;SDS011;66014;53.134;18.006;2023-10-19T13:43:46;15.70;;;8.40;;
77085;SDS011;66014;53.134;18.006;2023-10-19T13:46:13;18.10;;;8.70;;
77085;SDS011;66014;53.134;18.006;2023-10-19T13:48:40;12.50;;;7.50;;
77085;SDS011;66014;53.134;18.006;2023-10-19T13:51:06;16.70;;;8.60;;
77085;SDS011;66014;53.134;18.006;2023-10-19T13:53:39;15.00;;;8.00;;
77085;SDS011;66014;53.134;18.006;2023-10-19T13:56:09;19.50;;;9.00;;
77085;SDS011;66014;53.134;18.006;2023-10-19T13:58:36;17.30;;;8.00;;
77085;SDS011;66014;53.134;18.006;2023-10-19T14:01:07;12.10;;;7.70;;
77085;SDS011;66014;53.134;18.006;2023-10-19T14:03:37;16.70;;;8.00;;
77085;SDS011;66014;53.134;18.006;2023-10-19T14:06:04;12.40;;;7.60;;
77085;SDS011;66014;53.134;18.006;2023-10-19T14:08:30;14.80;;;8.10;;
77085;SDS011;66014;53.134;18.006;2023-10-19T14:11:00;14.20;;;7.80;;
77085;SDS011;66014;53.134;18.006;2023-10-19T14:13:28;16.00;;;8.10;;
77085;SDS011;66014;53.134;18.006;2023-10-19T14:15:55;10.80;;;7.00;;
77085;SDS011;66014;53.134;18.006;2023-10-19T14:18:22;13.40;;;7.50;;
77085;SDS011;66014;53.134;18.006;2023-10-19T14:20:48;14.00;;;7.30;;
77085;SDS011;66014;53.134;18.006;2023-10-19T14:23:15;18.70;;;9.20;;
77085;SDS011;66014;53.134;18.006;2023-10-19T14:25:41;12.10;;;7.90;;
77085;SDS011;66014;53.134;18.006;2023-10-19T14:28:10;14.60;;;7.90;;
77085;SDS011;66014;53.134;18.006;2023-10-19T14:30:38;11.00;;;6.70;;
77085;SDS011;66014;53.134;18.006;2023-10-19T14:33:04;15.30;;;7.70;;
77085;SDS011;66014;53.134;18.006;2023-10-19T14:35:37;11.90;;;7.70;;
77085;SDS011;66014;53.134;18.006;2023-10-19T14:38:10;15.80;;;8.00;;
77085;SDS011;66014;53.134;18.006;2023-10-19T14:40:39;13.70;;;7.40;;